createdAt,value
2024-02-28T00:00:42.039Z,18.25
2024-02-28T00:03:08.729Z,14.38
2024-02-28T00:05:35.317Z,19.88
2024-02-28T00:08:01.835Z,13.73
2024-02-28T00:10:28.452Z,14.25
2024-02-28T00:12:55.057Z,16.67
2024-02-28T00:15:21.778Z,16.27
2024-02-28T00:17:48.383Z,15.80
2024-02-28T00:20:15.329Z,12.82
2024-02-28T00:22:43.647Z,13.43
2024-02-28T00:25:12.275Z,19.90
2024-02-28T00:27:38.938Z,15.68
2024-02-28T00:30:07.900Z,15.83
2024-02-28T00:32:34.771Z,15.73
2024-02-28T00:35:01.349Z,16.48
2024-02-28T00:37:28.095Z,16.55
2024-02-28T00:39:54.886Z,15.73
2024-02-28T00:42:21.563Z,16.83
2024-02-28T00:44:48.106Z,14.63
2024-02-28T00:47:14.698Z,15.68
2024-02-28T00:49:41.317Z,18.35
2024-02-28T00:52:07.920Z,17.55
2024-02-28T00:54:34.599Z,16.87
2024-02-28T00:57:01.209Z,14.90
2024-02-28T00:59:27.769Z,21.33
2024-02-28T01:01:54.394Z,16.00
2024-02-28T01:04:21.077Z,19.00
2024-02-28T01:06:47.800Z,16.60
2024-02-28T01:09:14.521Z,14.75
2024-02-28T01:11:41.224Z,17.23
2024-02-28T01:14:07.848Z,24.08
2024-02-28T01:16:34.664Z,13.35
2024-02-28T01:19:01.372Z,17.73
2024-02-28T01:21:28.047Z,13.43
2024-02-28T01:23:54.635Z,16.80
2024-02-28T01:26:23.308Z,17.92
2024-02-28T01:28:50.577Z,15.52
2024-02-28T01:31:17.273Z,15.90
2024-02-28T01:33:43.965Z,16.38
2024-02-28T01:36:12.768Z,16.80
2024-02-28T01:38:39.322Z,17.60
2024-02-28T01:41:06.610Z,21.27
2024-02-28T01:43:33.733Z,20.00
2024-02-28T01:46:04.572Z,18.77
2024-02-28T01:48:31.402Z,18.00
2024-02-28T01:50:58.420Z,16.40
2024-02-28T01:53:25.133Z,18.50
2024-02-28T01:55:53.059Z,18.60
2024-02-28T01:58:20.742Z,17.63
2024-02-28T02:00:48.306Z,17.27
2024-02-28T02:03:15.014Z,17.00
2024-02-28T02:05:42.965Z,17.33
2024-02-28T02:08:10.306Z,21.23
2024-02-28T02:10:36.882Z,10.13
2024-02-28T02:13:07.454Z,20.20
2024-02-28T02:15:34.190Z,20.60
2024-02-28T02:18:00.930Z,19.65
2024-02-28T02:20:31.126Z,18.03
2024-02-28T02:22:58.047Z,22.48
2024-02-28T02:25:24.626Z,15.88
2024-02-28T02:27:51.255Z,19.17
2024-02-28T02:30:18.136Z,20.23
2024-02-28T02:32:44.783Z,14.67
2024-02-28T02:35:11.433Z,19.95
2024-02-28T02:37:38.162Z,19.20
2024-02-28T02:40:05.109Z,18.38
2024-02-28T02:42:31.673Z,17.17
2024-02-28T02:44:58.332Z,19.67
2024-02-28T02:47:24.915Z,21.20
2024-02-28T02:49:51.481Z,19.15
2024-02-28T02:52:18.071Z,17.77
2024-02-28T02:54:44.704Z,18.77
2024-02-28T02:57:11.290Z,17.17
2024-02-28T02:59:37.877Z,24.15
2024-02-28T03:02:05.277Z,18.05
2024-02-28T03:04:31.880Z,15.55
2024-02-28T03:06:58.981Z,18.55
2024-02-28T03:09:25.941Z,14.45
2024-02-28T03:11:52.535Z,16.95
2024-02-28T03:14:20.114Z,21.58
2024-02-28T03:16:46.866Z,15.00
2024-02-28T03:19:13.466Z,18.23
2024-02-28T03:21:40.042Z,18.80
2024-02-28T03:24:06.880Z,18.08
2024-02-28T03:26:33.679Z,18.23
2024-02-28T03:29:00.754Z,20.95
2024-02-28T03:31:27.821Z,20.52
2024-02-28T03:33:54.449Z,20.65
2024-02-28T03:36:21.116Z,22.75
2024-02-28T03:38:47.712Z,21.45
2024-02-28T03:41:14.361Z,20.00
2024-02-28T03:43:40.919Z,19.63
2024-02-28T03:46:07.571Z,27.10
2024-02-28T03:48:34.407Z,18.20
2024-02-28T03:51:00.952Z,19.98
2024-02-28T03:53:27.734Z,17.45
2024-02-28T03:55:54.434Z,24.73
2024-02-28T03:58:21.018Z,18.67
2024-02-28T04:00:48.085Z,18.42
2024-02-28T04:03:18.066Z,19.73
2024-02-28T04:05:44.657Z,21.88
2024-02-28T04:08:11.552Z,18.90
2024-02-28T04:10:38.152Z,21.63
2024-02-28T04:13:04.904Z,17.65
2024-02-28T04:15:32.242Z,19.50
2024-02-28T04:17:58.965Z,19.40
2024-02-28T04:20:25.620Z,20.33
2024-02-28T04:22:52.169Z,19.65
2024-02-28T04:25:18.764Z,17.55
2024-02-28T04:27:45.354Z,21.15
2024-02-28T04:30:12.099Z,19.23
2024-02-28T04:32:39.582Z,19.17
2024-02-28T04:35:07.689Z,24.75
2024-02-28T04:37:35.889Z,19.65
2024-02-28T04:40:03.138Z,20.58
2024-02-28T04:42:29.763Z,18.45
2024-02-28T04:44:56.414Z,19.95
2024-02-28T04:47:29.763Z,22.63
2024-02-28T04:50:00.333Z,19.10
2024-02-28T04:52:28.381Z,20.45
2024-02-28T04:54:55.207Z,21.25
2024-02-28T04:57:21.902Z,20.00
2024-02-28T04:59:48.511Z,15.55
2024-02-28T05:02:15.281Z,23.08
2024-02-28T05:04:41.900Z,19.88
2024-02-28T05:07:08.606Z,21.73
2024-02-28T05:09:35.614Z,19.40
2024-02-28T05:12:03.087Z,20.48
2024-02-28T05:14:29.657Z,22.40
2024-02-28T05:16:56.645Z,20.63
2024-02-28T05:19:23.228Z,20.08
2024-02-28T05:21:50.243Z,21.13
2024-02-28T05:24:16.912Z,18.02
2024-02-28T05:26:43.565Z,23.17
2024-02-28T05:29:10.159Z,30.75
2024-02-28T05:31:39.322Z,25.50
2024-02-28T05:34:06.241Z,25.55
2024-02-28T05:36:32.909Z,27.27
2024-02-28T05:39:02.308Z,21.70
2024-02-28T05:41:29.732Z,25.45
2024-02-28T05:43:56.357Z,26.02
2024-02-28T05:46:23.492Z,17.23
2024-02-28T05:48:50.290Z,26.95
2024-02-28T05:51:17.217Z,26.80
2024-02-28T05:53:44.567Z,19.50
2024-02-28T05:56:14.808Z,20.42
2024-02-28T05:58:42.571Z,24.35
2024-02-28T06:01:10.359Z,20.95
2024-02-28T06:03:38.047Z,22.55
2024-02-28T06:06:07.979Z,20.23
2024-02-28T06:08:35.691Z,23.27
2024-02-28T06:11:02.887Z,20.42
2024-02-28T06:13:30.309Z,24.75
2024-02-28T06:15:57.636Z,21.52
2024-02-28T06:18:27.926Z,26.92
2024-02-28T06:20:56.024Z,23.83
2024-02-28T06:23:28.298Z,25.30
2024-02-28T06:25:56.070Z,23.13
2024-02-28T06:28:22.652Z,18.15
2024-02-28T06:30:49.270Z,24.23
2024-02-28T06:33:15.990Z,21.35
2024-02-28T06:35:42.641Z,24.58
2024-02-28T06:38:09.189Z,26.88
2024-02-28T06:40:35.911Z,21.88
2024-02-28T06:43:02.899Z,31.08
2024-02-28T06:45:29.549Z,26.50
2024-02-28T06:47:56.206Z,28.20
2024-02-28T06:50:22.922Z,32.63
2024-02-28T06:52:49.526Z,26.52
2024-02-28T06:55:16.275Z,25.60
2024-02-28T06:57:43.649Z,27.20
2024-02-28T07:00:17.219Z,24.35
2024-02-28T07:02:44.228Z,29.27
2024-02-28T07:05:11.641Z,24.77
2024-02-28T07:07:38.228Z,28.05
2024-02-28T07:10:05.855Z,25.15
2024-02-28T07:12:33.187Z,28.33
2024-02-28T07:15:00.068Z,27.42
2024-02-28T07:17:26.819Z,31.15
2024-02-28T07:19:53.428Z,28.48
2024-02-28T07:22:20.037Z,29.63
2024-02-28T07:24:46.733Z,28.98
2024-02-28T07:27:13.374Z,28.70
2024-02-28T07:29:40.023Z,32.85
2024-02-28T07:32:06.868Z,35.67
2024-02-28T07:34:34.957Z,31.92
2024-02-28T07:37:01.666Z,34.22
2024-02-28T07:39:28.450Z,34.15
2024-02-28T07:41:56.525Z,26.00
2024-02-28T07:44:23.624Z,30.00
2024-02-28T07:46:52.271Z,37.45
2024-02-28T07:49:19.655Z,28.08
2024-02-28T07:51:46.834Z,40.08
2024-02-28T07:54:13.715Z,31.55
2024-02-28T07:56:40.717Z,32.15
2024-02-28T07:59:07.436Z,31.45
2024-02-28T08:01:35.445Z,39.55
2024-02-28T08:04:03.387Z,33.13
2024-02-28T08:06:30.509Z,30.98
2024-02-28T08:08:57.185Z,30.30
2024-02-28T08:11:24.732Z,31.25
2024-02-28T08:13:51.939Z,36.58
2024-02-28T08:16:18.524Z,39.67
2024-02-28T08:18:45.573Z,32.35
2024-02-28T08:21:12.381Z,29.42
2024-02-28T08:23:39.511Z,33.08
2024-02-28T08:26:06.287Z,39.00
2024-02-28T08:28:33.001Z,31.05
2024-02-28T08:31:00.192Z,35.85
2024-02-28T08:33:27.173Z,20.35
2024-02-28T08:35:55.055Z,35.13
2024-02-28T08:38:21.799Z,29.77
2024-02-28T08:40:48.379Z,30.48
2024-02-28T08:43:14.949Z,35.22
2024-02-28T08:45:41.607Z,32.70
2024-02-28T08:48:08.904Z,31.42
2024-02-28T08:50:35.900Z,29.35
2024-02-28T08:53:04.060Z,33.00
2024-02-28T08:55:31.304Z,27.55
2024-02-28T08:57:58.091Z,32.30
2024-02-28T09:00:24.920Z,27.20
2024-02-28T09:02:51.562Z,35.70
2024-02-28T09:05:18.212Z,33.10
2024-02-28T09:07:44.926Z,37.17
2024-02-28T09:10:12.444Z,30.48
2024-02-28T09:12:39.440Z,31.98
2024-02-28T09:15:06.625Z,19.95
2024-02-28T09:17:33.339Z,23.40
2024-02-28T09:20:02.339Z,24.58
2024-02-28T09:22:29.131Z,26.67
2024-02-28T09:24:55.995Z,24.77
2024-02-28T09:27:22.898Z,30.63
2024-02-28T09:29:49.560Z,24.23
2024-02-28T09:32:16.278Z,24.90
2024-02-28T09:34:43.105Z,24.10
2024-02-28T09:37:09.884Z,18.42
2024-02-28T09:39:40.571Z,27.00
2024-02-28T09:42:11.359Z,25.67
2024-02-28T09:44:38.481Z,23.33
2024-02-28T09:47:05.436Z,20.65
2024-02-28T09:49:32.943Z,14.48
2024-02-28T09:52:00.403Z,20.00
2024-02-28T09:54:27.427Z,21.23
2024-02-28T09:56:54.688Z,23.73
2024-02-28T09:59:26.706Z,23.92
2024-02-28T10:01:59.358Z,22.92
2024-02-28T10:04:28.755Z,25.55
2024-02-28T10:06:55.414Z,21.67
2024-02-28T10:09:22.110Z,21.13
2024-02-28T10:11:48.831Z,17.80
2024-02-28T10:14:22.130Z,18.52
2024-02-28T10:16:48.723Z,22.02
2024-02-28T10:19:15.483Z,17.60
2024-02-28T10:21:43.125Z,15.83
2024-02-28T10:24:14.196Z,15.27
2024-02-28T10:26:56.377Z,19.00
2024-02-28T10:29:26.702Z,16.92
2024-02-28T10:31:54.802Z,16.73
2024-02-28T10:34:21.448Z,16.17
2024-02-28T10:36:48.780Z,16.23
2024-02-28T10:39:15.916Z,14.98
2024-02-28T10:41:44.542Z,16.30
2024-02-28T10:44:13.972Z,11.10
2024-02-28T10:46:41.180Z,14.03
2024-02-28T10:49:08.404Z,14.77
2024-02-28T10:51:38.651Z,14.10
2024-02-28T10:54:15.306Z,13.48
2024-02-28T10:56:44.856Z,18.60
2024-02-28T10:59:13.849Z,15.23
2024-02-28T11:01:43.952Z,12.70
2024-02-28T11:04:12.138Z,12.57
2024-02-28T11:06:49.872Z,11.50
2024-02-28T11:09:23.740Z,14.23
2024-02-28T11:11:52.331Z,10.23
2024-02-28T11:14:23.313Z,14.15
2024-02-28T11:17:00.907Z,12.15
2024-02-28T11:19:30.428Z,10.85
2024-02-28T11:21:58.596Z,16.13
2024-02-28T11:24:26.675Z,11.27
2024-02-28T11:26:56.524Z,16.23
2024-02-28T11:29:28.454Z,14.02
2024-02-28T11:31:55.124Z,15.25
2024-02-28T11:34:22.247Z,16.98
2024-02-28T11:36:50.549Z,16.23
2024-02-28T11:39:18.527Z,14.75
2024-02-28T11:41:48.688Z,12.30
2024-02-28T11:44:17.577Z,13.45
2024-02-28T11:46:47.306Z,11.98
2024-02-28T11:49:14.299Z,11.90
2024-02-28T11:51:42.509Z,15.98
2024-02-28T11:54:11.960Z,16.50
2024-02-28T11:56:42.491Z,15.57
2024-02-28T11:59:12.439Z,16.95
2024-02-28T12:01:41.981Z,11.93
2024-02-28T12:04:09.320Z,16.35
2024-02-28T12:06:37.875Z,16.83
2024-02-28T12:09:05.751Z,14.82
2024-02-28T12:11:32.885Z,16.40
2024-02-28T12:14:00.965Z,16.03
2024-02-28T12:16:28.578Z,16.30
2024-02-28T12:18:55.459Z,16.60
2024-02-28T12:21:22.547Z,14.70
2024-02-28T12:23:51.519Z,14.68
2024-02-28T12:26:21.491Z,16.10
2024-02-28T12:28:48.010Z,16.55
2024-02-28T12:31:14.775Z,18.83
2024-02-28T12:33:41.722Z,18.40
2024-02-28T12:36:08.767Z,19.17
2024-02-28T12:38:35.431Z,18.50
2024-02-28T12:41:02.736Z,17.42
2024-02-28T12:43:32.019Z,13.05
2024-02-28T12:45:58.673Z,18.13
2024-02-28T12:48:25.433Z,18.90
2024-02-28T12:50:52.300Z,18.17
2024-02-28T12:53:18.979Z,16.77
2024-02-28T12:55:46.194Z,16.60
2024-02-28T12:58:12.901Z,15.90
2024-02-28T13:00:39.551Z,17.33
2024-02-28T13:03:07.164Z,18.33
2024-02-28T13:05:33.802Z,16.70
2024-02-28T13:08:00.443Z,17.98
2024-02-28T13:10:27.218Z,18.65
2024-02-28T13:12:54.035Z,17.58
2024-02-28T13:15:20.803Z,13.57
2024-02-28T13:17:50.767Z,11.80
2024-02-28T13:20:17.875Z,13.57
2024-02-28T13:22:44.689Z,11.63
2024-02-28T13:25:12.841Z,12.85
2024-02-28T13:27:39.434Z,11.37
2024-02-28T13:30:06.819Z,12.38
2024-02-28T13:32:33.670Z,14.77
2024-02-28T13:35:01.395Z,15.02
2024-02-28T13:37:28.094Z,15.25
2024-02-28T13:39:54.753Z,13.27
2024-02-28T13:42:21.484Z,13.57
2024-02-28T13:44:48.309Z,15.60
2024-02-28T13:47:15.382Z,12.85
2024-02-28T13:49:42.067Z,14.30
2024-02-28T13:52:09.150Z,16.03
2024-02-28T13:54:36.527Z,12.60
2024-02-28T13:57:05.044Z,11.48
2024-02-28T13:59:32.256Z,13.52
2024-02-28T14:02:01.132Z,10.55
2024-02-28T14:04:27.838Z,11.77
2024-02-28T14:06:54.500Z,11.13
2024-02-28T14:09:21.209Z,13.85
2024-02-28T14:11:48.049Z,15.60
2024-02-28T14:14:14.650Z,13.30
2024-02-28T14:16:41.219Z,11.43
2024-02-28T14:19:07.873Z,12.30
2024-02-28T14:21:34.758Z,11.07
2024-02-28T14:24:01.445Z,12.20
2024-02-28T14:26:28.309Z,12.68
2024-02-28T14:28:56.386Z,9.27
2024-02-28T14:31:25.134Z,10.63
2024-02-28T14:33:51.786Z,10.93
2024-02-28T14:36:18.506Z,11.02
2024-02-28T14:38:45.537Z,9.30
2024-02-28T14:41:12.955Z,11.17
2024-02-28T14:43:40.165Z,10.07
2024-02-28T14:46:08.407Z,10.95
2024-02-28T14:48:35.277Z,9.60
2024-02-28T14:51:03.518Z,8.57
2024-02-28T14:53:30.222Z,7.57
2024-02-28T14:55:56.852Z,7.70
2024-02-28T14:58:23.512Z,12.20
2024-02-28T15:00:50.551Z,9.45
2024-02-28T15:03:17.685Z,8.25
2024-02-28T15:05:45.351Z,8.17
2024-02-28T15:08:12.333Z,8.02
2024-02-28T15:10:38.949Z,8.00
2024-02-28T15:13:05.628Z,8.02
2024-02-28T15:15:32.387Z,6.43
2024-02-28T15:17:59.685Z,7.87
2024-02-28T15:20:26.483Z,12.02
2024-02-28T15:22:53.122Z,6.43
2024-02-28T15:25:19.739Z,8.05
2024-02-28T15:27:46.358Z,7.68
2024-02-28T15:30:13.584Z,7.83
2024-02-28T15:32:41.143Z,6.25
2024-02-28T15:35:11.759Z,5.50
2024-02-28T15:37:39.450Z,6.70
2024-02-28T15:40:07.809Z,6.75
2024-02-28T15:42:35.571Z,5.77
2024-02-28T15:45:02.965Z,5.32
2024-02-28T15:47:31.466Z,6.13
2024-02-28T15:50:00.160Z,10.73
2024-02-28T15:52:26.822Z,7.10
2024-02-28T15:54:53.400Z,5.63
2024-02-28T15:57:19.979Z,4.45
2024-02-28T15:59:46.631Z,6.10
2024-02-28T16:02:13.344Z,6.35
2024-02-28T16:04:40.013Z,6.78
2024-02-28T16:07:08.747Z,8.13
2024-02-28T16:09:35.458Z,6.13
2024-02-28T16:12:03.686Z,8.77
2024-02-28T16:14:30.283Z,6.10
2024-02-28T16:16:56.978Z,7.38
2024-02-28T16:19:27.305Z,5.07
2024-02-28T16:21:55.264Z,6.55
2024-02-28T16:24:22.352Z,5.20
2024-02-28T16:26:49.123Z,7.43
2024-02-28T16:29:15.964Z,6.15
2024-02-28T16:31:44.644Z,5.90
2024-02-28T16:34:11.276Z,7.72
2024-02-28T16:36:38.017Z,7.70
2024-02-28T16:39:04.791Z,6.72
2024-02-28T16:41:31.403Z,6.68
2024-02-28T16:43:58.743Z,7.00
2024-02-28T16:46:25.333Z,8.07
2024-02-28T16:48:52.009Z,8.75
2024-02-28T16:51:20.534Z,6.72
2024-02-28T16:53:47.311Z,6.82
2024-02-28T16:56:13.993Z,9.97
2024-02-28T16:58:44.004Z,11.07
2024-02-28T17:01:11.579Z,7.63
2024-02-28T17:03:38.454Z,8.57
2024-02-28T17:06:06.058Z,11.13
2024-02-28T17:08:33.993Z,7.97
2024-02-28T17:11:00.777Z,9.30
2024-02-28T17:13:27.745Z,11.95
2024-02-28T17:16:03.803Z,10.23
2024-02-28T17:18:31.658Z,8.68
2024-02-28T17:20:59.106Z,7.65
2024-02-28T17:23:26.667Z,8.10
2024-02-28T17:25:54.003Z,7.00
2024-02-28T17:28:20.748Z,9.80
2024-02-28T17:30:47.755Z,8.00
2024-02-28T17:33:14.555Z,7.97
2024-02-28T17:35:42.869Z,7.45
2024-02-28T17:38:09.582Z,5.82
2024-02-28T17:40:36.185Z,10.83
2024-02-28T17:43:02.952Z,7.93
2024-02-28T17:45:29.865Z,6.40
2024-02-28T17:47:57.198Z,6.93
2024-02-28T17:50:25.780Z,7.47
2024-02-28T17:52:52.547Z,8.13
2024-02-28T17:55:19.212Z,10.98
2024-02-28T17:57:47.354Z,11.27
2024-02-28T18:00:14.537Z,10.13
2024-02-28T18:02:42.540Z,13.00
2024-02-28T18:05:11.554Z,8.35
2024-02-28T18:07:43.191Z,9.23
2024-02-28T18:10:14.112Z,9.23
2024-02-28T18:12:40.949Z,8.02
2024-02-28T18:15:08.249Z,9.00
2024-02-28T18:17:35.608Z,11.40
2024-02-28T18:20:06.335Z,10.27
2024-02-28T18:22:33.083Z,8.70
2024-02-28T18:25:00.977Z,12.25
2024-02-28T18:27:28.168Z,12.50
2024-02-28T18:29:54.861Z,9.57
2024-02-28T18:32:21.557Z,8.23
2024-02-28T18:34:51.410Z,7.88
2024-02-28T18:37:19.701Z,10.10
2024-02-28T18:39:46.425Z,11.98
2024-02-28T18:42:13.165Z,8.87
2024-02-28T18:44:39.768Z,9.23
2024-02-28T18:47:06.924Z,9.27
2024-02-28T18:49:34.024Z,14.32
2024-02-28T18:52:01.520Z,10.73
2024-02-28T18:54:28.500Z,9.83
2024-02-28T18:56:55.658Z,9.15
2024-02-28T18:59:22.309Z,13.05
2024-02-28T19:01:51.068Z,9.43
2024-02-28T19:04:18.097Z,12.20
2024-02-28T19:06:48.899Z,10.40
2024-02-28T19:09:15.756Z,10.52
2024-02-28T19:11:43.033Z,10.52
2024-02-28T19:14:09.872Z,9.90
2024-02-28T19:16:36.484Z,10.00
2024-02-28T19:19:03.370Z,11.93
2024-02-28T19:21:30.198Z,12.40
2024-02-28T19:23:57.083Z,9.52
2024-02-28T19:26:24.766Z,9.18
2024-02-28T19:28:51.464Z,10.57
2024-02-28T19:31:18.205Z,10.10
2024-02-28T19:33:44.908Z,7.32
2024-02-28T19:36:11.667Z,15.40
2024-02-28T19:38:38.375Z,9.40
2024-02-28T19:41:05.191Z,9.00
2024-02-28T19:43:33.283Z,9.40
2024-02-28T19:46:01.099Z,9.95
2024-02-28T19:48:28.544Z,10.32
2024-02-28T19:50:55.167Z,12.38
2024-02-28T19:53:21.903Z,11.77
2024-02-28T19:55:48.846Z,11.17
2024-02-28T19:58:15.586Z,12.43
2024-02-28T20:00:42.289Z,11.10
2024-02-28T20:03:09.159Z,10.55
2024-02-28T20:05:36.256Z,9.90
2024-02-28T20:08:02.846Z,12.43
2024-02-28T20:10:31.152Z,10.73
2024-02-28T20:12:58.935Z,13.43
2024-02-28T20:15:27.248Z,12.27
2024-02-28T20:17:54.634Z,11.90
2024-02-28T20:20:21.729Z,11.35
2024-02-28T20:22:50.425Z,18.15
2024-02-28T20:25:17.114Z,12.23
2024-02-28T20:27:44.912Z,13.20
2024-02-28T20:30:11.943Z,10.80
2024-02-28T20:32:38.749Z,10.45
2024-02-28T20:35:06.555Z,11.02
2024-02-28T20:37:33.457Z,10.98
2024-02-28T20:40:00.132Z,9.88
2024-02-28T20:42:26.966Z,11.48
2024-02-28T20:44:53.572Z,12.93
2024-02-28T20:47:20.899Z,14.43
2024-02-28T20:49:47.538Z,10.20
2024-02-28T20:52:14.240Z,11.07
2024-02-28T20:54:41.004Z,10.85
2024-02-28T20:57:12.844Z,11.05
2024-02-28T20:59:43.879Z,11.15
2024-02-28T21:02:10.645Z,13.23
2024-02-28T21:04:38.577Z,9.30
2024-02-28T21:07:06.106Z,10.38
2024-02-28T21:09:33.194Z,12.57
2024-02-28T21:12:06.774Z,9.65
2024-02-28T21:14:33.512Z,12.27
2024-02-28T21:17:00.230Z,12.07
2024-02-28T21:19:27.325Z,12.27
2024-02-28T21:21:54.133Z,13.68
2024-02-28T21:24:20.917Z,10.32
2024-02-28T21:26:47.494Z,14.30
2024-02-28T21:29:14.143Z,13.43
2024-02-28T21:31:40.913Z,10.13
2024-02-28T21:34:07.793Z,11.43
2024-02-28T21:36:37.228Z,12.55
2024-02-28T21:39:09.712Z,11.98
2024-02-28T21:41:36.501Z,12.82
2024-02-28T21:44:03.145Z,12.82
2024-02-28T21:46:29.786Z,14.25
2024-02-28T21:49:02.837Z,9.73
2024-02-28T21:51:33.416Z,11.70
2024-02-28T21:54:00.836Z,12.13
2024-02-28T21:56:27.426Z,13.75
2024-02-28T21:58:54.045Z,10.95
2024-02-28T22:01:20.919Z,17.67
2024-02-28T22:03:48.439Z,13.30
2024-02-28T22:06:15.209Z,15.02
2024-02-28T22:08:41.991Z,11.70
2024-02-28T22:11:09.267Z,13.77
2024-02-28T22:13:36.463Z,15.38
2024-02-28T22:16:03.886Z,14.13
2024-02-28T22:18:30.829Z,14.13
2024-02-28T22:20:57.548Z,21.75
2024-02-28T22:23:24.156Z,15.02
2024-02-28T22:25:50.807Z,14.13
2024-02-28T22:28:17.486Z,16.42
2024-02-28T22:30:44.157Z,13.57
2024-02-28T22:33:10.789Z,13.75
2024-02-28T22:35:37.896Z,17.85
2024-02-28T22:38:04.631Z,17.25
2024-02-28T22:40:32.978Z,16.55
2024-02-28T22:42:59.806Z,17.75
2024-02-28T22:45:26.568Z,10.30
2024-02-28T22:47:53.288Z,17.45
2024-02-28T22:50:19.897Z,15.90
2024-02-28T22:52:46.440Z,15.35
2024-02-28T22:55:13.147Z,18.88
2024-02-28T22:57:39.863Z,17.27
2024-02-28T23:00:30.237Z,16.70
2024-02-28T23:03:07.486Z,17.05
2024-02-28T23:05:36.026Z,15.63
2024-02-28T23:08:03.666Z,17.10
2024-02-28T23:10:30.263Z,18.45
2024-02-28T23:12:57.608Z,16.10
2024-02-28T23:15:24.871Z,24.23
2024-02-28T23:17:56.986Z,17.05
2024-02-28T23:20:28.805Z,20.98
2024-02-28T23:22:56.082Z,19.13
2024-02-28T23:25:23.194Z,19.25
2024-02-28T23:27:51.567Z,17.33
2024-02-28T23:30:18.386Z,14.18
2024-02-28T23:32:45.035Z,18.40
2024-02-28T23:35:11.861Z,16.55
2024-02-28T23:37:39.726Z,17.17
2024-02-28T23:40:08.181Z,15.55
2024-02-28T23:42:36.141Z,15.70
2024-02-28T23:45:03.138Z,14.38
2024-02-28T23:47:29.925Z,14.30
2024-02-28T23:49:56.646Z,20.50
2024-02-28T23:52:23.546Z,20.35
2024-02-28T23:54:50.385Z,17.27
2024-02-28T23:57:17.034Z,17.25
2024-02-28T23:59:44.045Z,17.67
